Time;durP1;ratioP1;P1;durP2;ratioP2;P2;SDS_P1;SDS_P2;PMS_P1;PMS_P2;Temp;Humidity;BMP_temperature;BMP_pressure;BME280_temperature;BME280_humidity;BME280_pressure;Samples;Min_cycle;Max_cycle;Signal;HPM_P1;HPM_P2
2021/06/04 00:00:24;;;;;;;4.95;3.40;;;16.90;63.80;;;;;;5072907;28;20151;-64
2021/06/04 00:02:50;;;;;;;3.30;3.00;;;16.90;63.80;;;;;;5073132;28;20024;-64
2021/06/04 00:05:19;;;;;;;3.20;2.90;;;16.90;63.70;;;;;;5073441;28;20025;-64
2021/06/04 00:07:44;;;;;;;3.08;2.78;;;16.90;63.80;;;;;;5073233;28;20479;-64
2021/06/04 00:10:17;;;;;;;5.05;3.10;;;16.90;63.50;;;;;;5070471;28;20049;-64
2021/06/04 00:12:43;;;;;;;3.70;2.95;;;16.90;63.80;;;;;;5070941;28;20420;-64
2021/06/04 00:15:14;;;;;;;3.63;3.15;;;16.90;63.80;;;;;;5069635;28;20071;-64
2021/06/04 00:17:42;;;;;;;4.40;3.40;;;16.90;63.70;;;;;;5071507;28;20028;-64
2021/06/04 00:20:14;;;;;;;5.60;3.10;;;16.90;63.60;;;;;;5072613;28;20016;-64
2021/06/04 00:22:40;;;;;;;4.32;3.13;;;16.90;63.60;;;;;;5073249;28;20024;-64
2021/06/04 00:25:07;;;;;;;5.20;3.20;;;16.80;63.80;;;;;;5073025;28;20031;-64
2021/06/04 00:27:33;;;;;;;6.68;3.00;;;16.90;64.00;;;;;;5072860;28;20380;-64
2021/06/04 00:29:59;;;;;;;6.93;2.95;;;16.90;64.20;;;;;;5074792;28;20035;-64
2021/06/04 00:32:24;;;;;;;4.20;3.08;;;16.90;63.80;;;;;;5078411;28;20036;-64
2021/06/04 00:34:51;;;;;;;4.47;2.67;;;16.90;63.70;;;;;;5079040;28;20108;-63
2021/06/04 00:37:18;;;;;;;4.20;2.80;;;16.90;63.60;;;;;;5078589;28;20024;-64
2021/06/04 00:39:45;;;;;;;3.50;2.90;;;16.80;63.70;;;;;;5079380;28;20032;-64
2021/06/04 00:42:21;;;;;;;4.80;2.95;;;16.80;63.90;;;;;;5066731;28;20485;-64
2021/06/04 00:44:50;;;;;;;3.05;2.70;;;16.80;64.10;;;;;;5067012;28;20040;-64
2021/06/04 00:47:15;;;;;;;4.05;3.25;;;16.80;64.00;;;;;;5079341;28;20071;-64
2021/06/04 00:49:41;;;;;;;7.05;2.97;;;16.80;64.20;;;;;;5079401;28;20029;-64
2021/06/04 00:52:12;;;;;;;4.95;3.05;;;16.80;64.10;;;;;;5078937;28;20067;-64
2021/06/04 00:54:39;;;;;;;3.60;3.10;;;16.80;64.20;;;;;;5079354;28;20020;-64
2021/06/04 00:57:06;;;;;;;3.55;3.17;;;16.80;64.30;;;;;;5079219;28;20353;-64
2021/06/04 00:59:37;;;;;;;3.65;3.22;;;16.70;64.40;;;;;;5079506;28;20077;-64
2021/06/04 01:02:07;;;;;;;3.08;2.75;;;16.80;64.60;;;;;;5079180;28;20031;-64
2021/06/04 01:04:32;;;;;;;3.53;3.13;;;16.70;64.50;;;;;;5079638;28;20036;-64
2021/06/04 01:07:04;;;;;;;3.55;3.15;;;16.80;64.80;;;;;;5078910;28;20119;-64
2021/06/04 01:09:41;;;;;;;5.90;3.17;;;16.70;64.80;;;;;;5079317;28;20025;-64
2021/06/04 01:12:36;;;;;;;3.58;3.05;;;16.70;64.60;;;;;;5061360;28;20120;-64
2021/06/04 01:15:08;;;;;;;3.45;2.95;;;16.70;64.80;;;;;;5061632;28;20362;-64
2021/06/04 01:18:11;;;;;;;4.50;2.95;;;16.70;65.00;;;;;;5077263;28;20027;-64
2021/06/04 01:20:48;;;;;;;4.55;3.15;;;16.70;65.10;;;;;;5079041;28;20040;-64
2021/06/04 01:23:37;;;;;;;5.03;3.40;;;16.60;65.10;;;;;;5079226;28;20028;-64
2021/06/04 01:26:37;;;;;;;4.00;3.60;;;16.60;65.20;;;;;;5074863;28;20473;-64
2021/06/04 01:29:11;;;;;;;4.53;3.05;;;16.60;65.40;;;;;;5024793;28;20493;-64
2021/06/04 01:31:50;;;;;;;3.17;2.88;;;16.60;65.30;;;;;;5071650;28;20032;-64
2021/06/04 01:34:27;;;;;;;4.25;3.05;;;16.60;65.70;;;;;;5079028;28;20078;-64
2021/06/04 01:37:09;;;;;;;4.32;3.30;;;16.60;65.90;;;;;;5078547;28;20113;-64
2021/06/04 01:39:43;;;;;;;10.82;3.63;;;16.50;66.00;;;;;;5078694;28;20035;-64
2021/06/04 01:42:11;;;;;;;5.13;3.15;;;16.50;66.00;;;;;;5067283;28;20027;-64
2021/06/04 01:44:52;;;;;;;4.35;3.00;;;16.50;66.10;;;;;;5075708;28;20036;-64
2021/06/04 01:47:28;;;;;;;5.10;3.33;;;16.50;65.80;;;;;;5075288;28;20048;-64
2021/06/04 01:49:57;;;;;;;4.07;3.15;;;16.50;65.90;;;;;;5073329;28;20090;-64
2021/06/04 01:52:31;;;;;;;3.20;2.90;;;16.40;66.20;;;;;;5075459;28;20031;-64
2021/06/04 01:55:08;;;;;;;5.60;3.53;;;16.40;66.20;;;;;;5075445;28;20476;-64
2021/06/04 01:57:43;;;;;;;5.03;3.00;;;16.40;66.20;;;;;;5075662;28;20024;-64
2021/06/04 02:00:18;;;;;;;4.90;3.20;;;16.40;66.40;;;;;;5075019;28;20098;-64
2021/06/04 02:02:45;;;;;;;3.20;2.90;;;16.40;66.50;;;;;;5075471;28;20086;-64
2021/06/04 02:05:13;;;;;;;4.88;3.20;;;16.40;66.30;;;;;;5075412;28;20036;-64
2021/06/04 02:07:39;;;;;;;4.63;3.70;;;16.30;66.30;;;;;;5075344;28;20025;-64
2021/06/04 02:10:12;;;;;;;4.05;2.90;;;16.30;66.40;;;;;;5071889;28;20119;-64
2021/06/04 02:12:38;;;;;;;5.55;3.08;;;16.30;66.70;;;;;;5059277;28;20063;-64
2021/06/04 02:15:21;;;;;;;3.50;3.20;;;16.30;66.60;;;;;;5074849;28;20083;-64
2021/06/04 02:17:56;;;;;;;5.38;3.05;;;16.30;66.60;;;;;;5058796;28;20023;-64
2021/06/04 02:20:38;;;;;;;4.30;2.95;;;16.30;66.80;;;;;;5055191;28;20439;-64
2021/06/04 02:23:15;;;;;;;4.90;3.20;;;16.30;66.90;;;;;;5055169;28;20025;-64
2021/06/04 02:26:14;;;;;;;4.53;3.20;;;16.30;66.90;;;;;;5055177;28;20419;-64
2021/06/04 02:28:47;;;;;;;6.93;3.67;;;16.30;66.70;;;;;;5057691;28;20024;-64
2021/06/04 02:31:19;;;;;;;5.32;3.40;;;16.40;66.90;;;;;;5071571;28;20491;-64
2021/06/04 02:33:47;;;;;;;;;;;16.40;66.70;;;;;;5074561;28;20060;-64
2021/06/04 02:36:20;;;;;;;3.70;3.40;;;16.30;66.70;;;;;;5075066;28;19985;-64
2021/06/04 02:38:58;;;;;;;3.65;3.15;;;16.40;66.70;;;;;;5074745;28;20033;-64
2021/06/04 02:41:31;;;;;;;4.90;3.30;;;16.40;66.70;;;;;;5069363;28;20021;-64
2021/06/04 02:44:05;;;;;;;4.63;3.40;;;16.50;66.50;;;;;;5064692;28;20392;-64
2021/06/04 02:46:41;;;;;;;4.40;3.17;;;16.60;66.50;;;;;;5074197;28;20028;-64
2021/06/04 02:49:11;;;;;;;6.93;3.45;;;16.60;66.40;;;;;;5074587;28;20040;-62
2021/06/04 02:51:52;;;;;;;4.20;3.22;;;16.60;66.40;;;;;;5074511;28;20400;-64
2021/06/04 02:54:22;;;;;;;5.22;3.50;;;16.70;66.20;;;;;;5074362;28;20020;-64
2021/06/04 02:56:51;;;;;;;4.13;3.50;;;16.70;66.20;;;;;;5074639;28;20028;-64
2021/06/04 02:59:27;;;;;;;4.38;3.03;;;16.80;67.00;;;;;;5074351;28;20257;-64
2021/06/04 03:02:03;;;;;;;3.35;3.03;;;16.90;66.10;;;;;;5074466;28;20477;-64
2021/06/04 03:04:32;;;;;;;4.50;3.53;;;16.90;66.10;;;;;;5074506;28;20113;-64
2021/06/04 03:07:02;;;;;;;4.80;3.35;;;17.00;65.90;;;;;;5073656;28;20116;-64
2021/06/04 03:09:32;;;;;;;3.53;3.13;;;17.00;65.70;;;;;;5069193;28;20036;-64
2021/06/04 03:12:02;;;;;;;4.40;3.03;;;17.10;65.80;;;;;;5056156;28;20416;-64
2021/06/04 03:14:28;;;;;;;5.38;3.33;;;17.10;65.60;;;;;;5054260;28;20384;-64
2021/06/04 03:16:57;;;;;;;5.50;3.80;;;17.20;65.70;;;;;;5070375;28;20447;-64
2021/06/04 03:19:24;;;;;;;4.40;3.80;;;17.30;65.60;;;;;;5073767;28;20036;-64
2021/06/04 03:22:05;;;;;;;4.55;3.30;;;17.40;65.50;;;;;;5073922;28;20468;-64
2021/06/04 03:24:34;;;;;;;4.22;3.75;;;17.50;65.50;;;;;;5073726;28;20028;-64
2021/06/04 03:27:04;;;;;;;5.00;3.05;;;17.60;65.60;;;;;;5069595;28;20116;-64
2021/06/04 03:29:30;;;;;;;4.60;3.10;;;17.80;65.30;;;;;;5073828;28;20028;-64
2021/06/04 03:32:01;;;;;;;3.95;2.97;;;18.00;65.50;;;;;;5060732;28;20044;-65
2021/06/04 03:34:28;;;;;;;3.78;3.28;;;18.30;65.30;;;;;;5058485;28;20036;-65
2021/06/04 03:36:56;;;;;;;4.72;2.95;;;18.60;65.10;;;;;;5073131;28;20042;-64
2021/06/04 03:39:26;;;;;;;3.67;3.00;;;18.90;64.30;;;;;;5073441;28;20477;-64
2021/06/04 03:41:53;;;;;;;3.97;3.03;;;19.20;63.10;;;;;;5066488;28;20133;-63
2021/06/04 03:44:21;;;;;;;5.22;3.33;;;19.50;62.80;;;;;;5053934;28;20484;-62
2021/06/04 03:46:47;;;;;;;5.95;3.25;;;19.80;62.00;;;;;;5060624;28;20040;-62
2021/06/04 03:49:15;;;;;;;4.78;2.97;;;20.20;61.50;;;;;;5073766;28;20024;-63
2021/06/04 03:51:42;;;;;;;3.45;2.95;;;20.90;61.40;;;;;;5073274;28;20481;-63
2021/06/04 03:54:13;;;;;;;3.20;2.90;;;21.70;59.50;;;;;;5073525;28;20350;-63
2021/06/04 03:56:40;;;;;;;3.33;3.00;;;22.10;57.60;;;;;;5072791;28;20035;-63
2021/06/04 03:59:07;;;;;;;3.35;2.65;;;22.30;56.20;;;;;;5073432;28;20107;-63
2021/06/04 04:01:40;;;;;;;4.40;2.83;;;22.40;56.20;;;;;;5073154;28;20384;-63
2021/06/04 04:04:06;;;;;;;4.70;2.90;;;22.80;55.80;;;;;;5071427;28;20024;-63
2021/06/04 04:06:33;;;;;;;9.32;3.38;;;23.10;54.70;;;;;;5073342;28;20373;-63
2021/06/04 04:08:58;;;;;;;3.20;2.90;;;23.20;53.80;;;;;;5071577;28;20031;-63
2021/06/04 04:11:24;;;;;;;2.92;2.65;;;23.20;54.10;;;;;;5066735;28;20029;-63
2021/06/04 04:13:51;;;;;;;4.10;3.05;;;23.40;53.30;;;;;;5071197;28;20456;-63
2021/06/04 04:16:17;;;;;;;5.30;2.70;;;23.70;53.50;;;;;;5060405;28;20071;-63
2021/06/04 04:18:43;;;;;;;8.63;2.80;;;23.90;52.30;;;;;;5071801;28;20117;-63
2021/06/04 04:21:11;;;;;;;5.03;2.88;;;23.70;52.00;;;;;;5072347;28;20523;-63
2021/06/04 04:23:58;;;;;;;4.28;2.78;;;23.50;53.00;;;;;;5072408;28;20409;-63
2021/06/04 04:26:30;;;;;;;4.28;2.80;;;23.60;52.80;;;;;;5072785;28;20021;-63
2021/06/04 04:28:57;;;;;;;4.38;3.20;;;23.80;52.00;;;;;;5072890;28;20107;-63
2021/06/04 04:31:26;;;;;;;5.00;3.08;;;23.60;51.60;;;;;;5069895;28;20035;-63
2021/06/04 04:33:53;;;;;;;4.80;3.33;;;23.10;51.70;;;;;;5072420;28;20029;-63
2021/06/04 04:36:21;;;;;;;3.60;2.90;;;22.60;52.30;;;;;;5072913;28;20456;-63
2021/06/04 04:38:47;;;;;;;4.95;3.25;;;22.10;52.80;;;;;;5071439;28;20428;-63
2021/06/04 04:41:14;;;;;;;6.03;3.08;;;21.60;53.60;;;;;;5071679;28;20109;-63
2021/06/04 04:43:42;;;;;;;5.45;4.07;;;21.30;54.10;;;;;;5066634;28;20028;-63
2021/06/04 04:46:09;;;;;;;7.30;3.85;;;20.90;54.80;;;;;;5073220;28;20484;-64
2021/06/04 04:48:35;;;;;;;3.65;2.78;;;20.60;55.20;;;;;;5072606;28;20135;-63
2021/06/04 04:51:02;;;;;;;3.60;2.95;;;20.30;55.70;;;;;;5072854;28;20025;-63
2021/06/04 04:53:27;;;;;;;4.75;2.70;;;20.10;56.30;;;;;;5072941;28;20472;-63
2021/06/04 04:55:53;;;;;;;4.35;3.00;;;19.90;56.70;;;;;;5072677;28;20032;-63
2021/06/04 04:58:20;;;;;;;4.03;3.20;;;19.70;57.10;;;;;;5071058;28;20056;-63
2021/06/04 05:00:45;;;;;;;3.30;3.00;;;19.50;57.60;;;;;;5072316;28;20041;-63
2021/06/04 05:03:12;;;;;;;4.63;3.30;;;19.40;57.60;;;;;;5072583;28;20059;-63
2021/06/04 05:05:38;;;;;;;2.95;2.60;;;19.30;57.90;;;;;;5072884;28;20025;-63
2021/06/04 05:08:05;;;;;;;4.78;3.33;;;19.20;58.10;;;;;;5072457;28;20031;-63
2021/06/04 05:10:32;;;;;;;5.75;2.90;;;19.10;58.20;;;;;;5072885;28;20489;-63
2021/06/04 05:12:58;;;;;;;3.92;3.03;;;19.10;58.40;;;;;;5067743;28;20028;-63
2021/06/04 05:15:27;;;;;;;6.55;3.00;;;19.00;58.60;;;;;;5068477;28;20040;-63
2021/06/04 05:17:53;;;;;;;3.83;2.85;;;19.00;58.90;;;;;;5058878;28;20381;-63
2021/06/04 05:20:20;;;;;;;4.55;3.58;;;19.00;59.20;;;;;;5070797;28;20021;-63
2021/06/04 05:22:47;;;;;;;7.50;3.50;;;19.00;59.30;;;;;;5072975;28;20035;-63
2021/06/04 05:25:19;;;;;;;4.88;3.20;;;19.00;59.40;;;;;;5073050;28;20025;-63
2021/06/04 05:27:45;;;;;;;3.60;3.25;;;19.10;59.40;;;;;;5065701;28;20055;-63
2021/06/04 05:30:19;;;;;;;4.32;2.83;;;19.10;59.40;;;;;;5059927;28;20030;-63
2021/06/04 05:32:45;;;;;;;5.15;3.00;;;19.20;59.40;;;;;;5062729;28;20031;-63
2021/06/04 05:35:11;;;;;;;3.22;2.80;;;19.30;59.50;;;;;;5069115;28;20041;-63
2021/06/04 05:37:37;;;;;;;3.33;2.78;;;19.30;59.20;;;;;;5072492;28;20028;-63
2021/06/04 05:40:16;;;;;;;3.47;2.95;;;19.40;59.10;;;;;;5074542;28;20029;-63
2021/06/04 05:42:42;;;;;;;4.57;3.10;;;19.40;59.40;;;;;;5060322;28;20032;-63
2021/06/04 05:45:11;;;;;;;3.50;3.00;;;19.50;59.40;;;;;;5069723;28;20044;-63
2021/06/04 05:47:37;;;;;;;3.05;2.72;;;19.50;59.40;;;;;;5065800;28;20512;-56
2021/06/04 05:50:05;;;;;;;3.67;3.13;;;19.60;59.30;;;;;;5061512;28;20066;-57
2021/06/04 05:52:30;;;;;;;3.22;2.90;;;19.70;59.30;;;;;;5065624;28;20062;-56
2021/06/04 05:54:56;;;;;;;4.43;2.92;;;19.80;59.40;;;;;;5066358;28;20063;-53
2021/06/04 05:57:22;;;;;;;3.53;2.70;;;19.80;59.10;;;;;;5061771;28;20024;-57
2021/06/04 05:59:49;;;;;;;3.13;2.80;;;19.90;59.30;;;;;;5062770;28;20036;-53
2021/06/04 06:02:15;;;;;;;4.38;2.75;;;20.00;59.20;;;;;;5064482;28;20072;-56
2021/06/04 06:04:41;;;;;;;5.53;3.10;;;20.00;59.20;;;;;;5068211;28;20048;-56
2021/06/04 06:07:07;;;;;;;5.40;3.00;;;20.10;59.20;;;;;;5067397;28;20430;-56
2021/06/04 06:09:33;;;;;;;5.57;3.17;;;20.10;58.90;;;;;;5064911;28;20385;-53
2021/06/04 06:11:59;;;;;;;4.10;2.90;;;20.10;58.50;;;;;;5062952;28;20036;-53
2021/06/04 06:14:25;;;;;;;3.70;2.90;;;20.20;58.60;;;;;;5061740;28;20377;-52
2021/06/04 06:16:50;;;;;;;3.42;2.97;;;20.20;58.70;;;;;;5056598;28;20058;-62
2021/06/04 06:19:18;;;;;;;6.43;3.15;;;20.20;58.80;;;;;;5056134;28;20029;-63
2021/06/04 06:21:48;;;;;;;4.18;3.05;;;20.30;59.10;;;;;;5057257;28;20063;-63
2021/06/04 06:24:14;;;;;;;4.30;3.00;;;20.40;59.20;;;;;;5058261;28;20050;-65
2021/06/04 06:26:41;;;;;;;3.65;3.08;;;20.50;59.00;;;;;;5064195;28;20028;-64
2021/06/04 06:29:09;;;;;;;4.30;2.90;;;20.60;59.10;;;;;;5063088;28;20093;-64
2021/06/04 06:31:37;;;;;;;4.00;3.20;;;20.70;58.90;;;;;;5057210;28;20020;-64
2021/06/04 06:34:04;;;;;;;4.07;3.42;;;20.80;58.50;;;;;;5062882;28;20036;-64
2021/06/04 06:36:32;;;;;;;3.80;3.28;;;20.90;58.50;;;;;;5061416;28;20147;-63
2021/06/04 06:39:01;;;;;;;3.83;2.92;;;21.00;58.30;;;;;;5059710;28;20116;-62
2021/06/04 06:41:28;;;;;;;4.45;2.90;;;21.10;58.30;;;;;;5060622;28;20357;-63
2021/06/04 06:43:54;;;;;;;4.70;2.58;;;21.20;58.00;;;;;;5070806;28;20483;-64
2021/06/04 06:46:22;;;;;;;5.22;3.20;;;21.20;58.10;;;;;;5059614;28;20028;-65
2021/06/04 06:48:48;;;;;;;3.60;2.78;;;21.30;58.60;;;;;;5051357;28;20492;-65
2021/06/04 06:51:14;;;;;;;3.53;2.45;;;21.40;58.40;;;;;;5061059;28;20107;-64
2021/06/04 06:53:41;;;;;;;4.03;3.08;;;21.50;58.00;;;;;;5055450;28;20059;-65
2021/06/04 06:56:09;;;;;;;3.45;2.63;;;21.50;57.60;;;;;;5064686;28;20056;-64
2021/06/04 06:58:36;;;;;;;4.50;2.90;;;21.50;57.40;;;;;;5063298;28;20024;-63
2021/06/04 07:01:03;;;;;;;4.57;2.90;;;21.60;57.50;;;;;;5056306;28;20587;-63
2021/06/04 07:03:32;;;;;;;5.70;3.30;;;21.60;57.80;;;;;;5057023;28;20426;-64
2021/06/04 07:06:00;;;;;;;7.03;3.85;;;21.60;57.90;;;;;;5055023;28;20432;-64
2021/06/04 07:08:27;;;;;;;4.82;2.85;;;21.60;57.60;;;;;;5059671;28;20032;-64
2021/06/04 07:10:53;;;;;;;5.30;2.95;;;21.60;57.60;;;;;;5056099;28;20036;-65
2021/06/04 07:13:27;;;;;;;4.22;2.83;;;21.60;57.30;;;;;;5058455;28;20042;-63
2021/06/04 07:16:00;;;;;;;4.30;3.00;;;21.60;57.30;;;;;;5058109;28;20020;-64
2021/06/04 07:18:27;;;;;;;5.85;3.10;;;21.50;57.10;;;;;;5056719;28;20564;-64
2021/06/04 07:20:53;;;;;;;4.55;2.95;;;21.50;57.10;;;;;;5054578;28;20120;-65
2021/06/04 07:23:20;;;;;;;5.25;3.20;;;21.40;57.10;;;;;;5056367;28;20484;-64
2021/06/04 07:25:46;;;;;;;3.90;2.97;;;21.40;57.20;;;;;;5053686;28;20370;-64
2021/06/04 07:28:14;;;;;;;3.42;2.75;;;21.40;57.30;;;;;;5052679;28;20511;-63
2021/06/04 07:30:43;;;;;;;5.20;2.72;;;21.30;57.50;;;;;;5053383;28;20036;-65
2021/06/04 07:33:18;;;;;;;4.20;2.85;;;21.30;57.30;;;;;;5055609;28;20056;-64
2021/06/04 07:35:44;;;;;;;5.63;3.67;;;21.30;57.40;;;;;;5055699;28;20075;-67
2021/06/04 07:38:10;;;;;;;4.97;3.10;;;21.30;57.90;;;;;;5055981;28;20247;-61
2021/06/04 07:40:37;;;;;;;3.60;2.72;;;21.30;58.20;;;;;;5056434;28;20037;-65
2021/06/04 07:43:09;;;;;;;5.82;3.20;;;21.30;58.40;;;;;;5054095;28;20567;-63
2021/06/04 07:45:37;;;;;;;3.72;2.90;;;21.30;58.10;;;;;;5059729;28;20558;-64
2021/06/04 07:48:04;;;;;;;4.32;2.63;;;21.30;58.00;;;;;;5055262;28;20059;-65
2021/06/04 07:50:30;;;;;;;4.25;3.13;;;21.30;57.90;;;;;;5053363;28;20079;-64
2021/06/04 07:52:56;;;;;;;4.95;3.00;;;21.30;58.20;;;;;;5053151;28;20028;-64
2021/06/04 07:55:22;;;;;;;4.90;2.80;;;21.40;58.20;;;;;;5051241;28;20067;-62
2021/06/04 07:57:48;;;;;;;4.05;2.53;;;21.40;58.00;;;;;;5052636;28;20112;-63
2021/06/04 08:00:18;;;;;;;3.45;2.78;;;21.40;58.00;;;;;;5049706;28;20488;-63
2021/06/04 08:02:43;;;;;;;3.60;2.78;;;21.40;57.80;;;;;;5049879;28;20459;-63
2021/06/04 08:05:10;;;;;;;4.03;2.80;;;21.50;57.50;;;;;;5054041;28;20024;-63
2021/06/04 08:07:35;;;;;;;4.13;2.92;;;21.60;57.40;;;;;;5042156;28;20397;-63
2021/06/04 08:10:02;;;;;;;5.78;3.10;;;21.60;57.20;;;;;;5045915;28;20024;-63
2021/06/04 08:12:31;;;;;;;2.90;2.55;;;21.70;56.70;;;;;;5044725;28;20032;-63
2021/06/04 08:15:03;;;;;;;6.38;2.58;;;21.80;56.30;;;;;;5046048;28;20052;-63
2021/06/04 08:17:29;;;;;;;3.80;2.33;;;21.90;55.80;;;;;;5050391;28;20068;-63
2021/06/04 08:19:55;;;;;;;3.55;2.00;;;21.90;55.40;;;;;;5050221;28;20441;-63
2021/06/04 08:22:21;;;;;;;4.78;2.25;;;22.00;54.00;;;;;;5054338;28;20025;-61
2021/06/04 08:24:47;;;;;;;2.72;1.98;;;22.10;53.50;;;;;;5050096;28;20039;-63
2021/06/04 08:27:14;;;;;;;2.72;1.98;;;22.10;53.60;;;;;;5049018;28;20032;-62
2021/06/04 08:29:43;;;;;;;5.15;1.77;;;22.10;52.80;;;;;;5048596;28;20059;-63
2021/06/04 08:32:10;;;;;;;3.15;2.38;;;22.10;52.20;;;;;;5046546;28;20338;-63
2021/06/04 08:34:37;;;;;;;3.35;2.22;;;22.20;52.40;;;;;;5051266;28;21586;-61
2021/06/04 08:37:03;;;;;;;3.55;2.03;;;22.20;51.10;;;;;;5033561;28;20160;-63
2021/06/04 08:39:30;;;;;;;3.97;2.10;;;22.20;50.80;;;;;;5048260;28;20115;-63
2021/06/04 08:42:08;;;;;;;3.88;2.10;;;22.20;50.80;;;;;;5047716;28;20036;-63
2021/06/04 08:45:11;;;;;;;3.22;2.00;;;22.20;50.30;;;;;;5050438;28;20108;-63
2021/06/04 08:47:40;;;;;;;1.95;1.60;;;22.10;49.40;;;;;;5053076;28;20508;-62
2021/06/04 08:50:30;;;;;;;7.05;2.30;;;22.00;50.40;;;;;;5053007;28;20032;-62
2021/06/04 08:53:25;;;;;;;2.60;2.10;;;21.90;50.30;;;;;;5062378;28;20039;-63
2021/06/04 08:55:59;;;;;;;2.67;2.00;;;21.80;49.00;;;;;;5047592;28;20048;-63
2021/06/04 08:58:46;;;;;;;2.47;1.90;;;21.80;48.80;;;;;;5051784;28;20033;-63
2021/06/04 09:01:23;;;;;;;3.47;2.40;;;21.80;48.30;;;;;;5048097;28;20124;-64
2021/06/04 09:04:12;;;;;;;2.25;1.85;;;21.80;48.60;;;;;;5047651;28;20036;-63
2021/06/04 09:06:49;;;;;;;2.13;1.90;;;21.80;48.60;;;;;;5053799;28;20033;-64
2021/06/04 09:09:49;;;;;;;3.60;2.17;;;21.80;48.40;;;;;;5056195;28;20033;-65
2021/06/04 09:12:17;;;;;;;1.88;1.75;;;21.80;48.30;;;;;;5013455;28;20047;-58
2021/06/04 09:14:43;;;;;;;3.10;1.92;;;21.80;48.40;;;;;;5055744;28;20039;-61
2021/06/04 09:17:21;;;;;;;4.18;2.30;;;21.80;48.50;;;;;;5040045;28;20093;-62
2021/06/04 09:20:12;;;;;;;4.40;2.45;;;21.80;49.40;;;;;;5051798;28;20031;-63
2021/06/04 09:22:41;;;;;;;3.20;2.10;;;21.90;48.30;;;;;;5048673;28;20029;-60
2021/06/04 09:25:10;;;;;;;3.90;1.88;;;21.90;49.00;;;;;;5049860;28;20040;-60
2021/06/04 09:27:40;;;;;;;2.22;1.55;;;22.00;48.70;;;;;;5054202;28;20029;-60
2021/06/04 09:30:44;;;;;;;4.13;2.47;;;22.00;48.20;;;;;;5054721;28;21638;-61
2021/06/04 09:33:33;;;;;;;2.88;2.00;;;22.00;48.40;;;;;;5010466;28;20484;-59
2021/06/04 09:36:10;;;;;;;3.15;1.92;;;22.00;48.70;;;;;;5049691;28;20028;-66
2021/06/04 09:38:38;;;;;;;2.08;1.65;;;22.00;48.90;;;;;;5053826;28;20033;-62
2021/06/04 09:41:25;;;;;;;3.97;1.83;;;22.00;48.30;;;;;;5044254;28;20088;-61
2021/06/04 09:44:06;;;;;;;3.55;1.67;;;22.00;47.90;;;;;;5053140;28;22198;-65
2021/06/04 09:46:53;;;;;;;2.85;1.90;;;22.10;47.70;;;;;;5056018;28;20036;-63
2021/06/04 09:49:43;;;;;;;2.17;1.88;;;22.10;47.60;;;;;;5049542;28;20463;-64
2021/06/04 09:52:27;;;;;;;3.85;2.63;;;22.10;46.80;;;;;;5049913;28;20031;-64
2021/06/04 09:55:11;;;;;;;2.88;2.10;;;22.10;47.50;;;;;;5054526;28;20050;-67
2021/06/04 09:57:37;;;;;;;2.92;2.10;;;22.10;46.40;;;;;;5055505;28;20033;-67
2021/06/04 10:00:20;;;;;;;5.03;1.90;;;22.10;46.70;;;;;;5051548;28;20033;-63
2021/06/04 10:02:45;;;;;;;5.90;2.00;;;22.10;47.50;;;;;;5049927;28;20040;-63
2021/06/04 10:05:32;;;;;;;2.92;1.75;;;22.10;47.10;;;;;;5057013;28;20525;-63
2021/06/04 10:08:14;;;;;;;3.13;1.92;;;22.10;46.90;;;;;;5047502;28;20037;-63
2021/06/04 10:10:40;;;;;;;2.53;1.77;;;22.00;46.50;;;;;;5054856;28;20098;-63
2021/06/04 10:13:34;;;;;;;4.05;1.95;;;22.00;46.50;;;;;;5054041;28;20037;-63
2021/06/04 10:16:03;;;;;;;4.20;2.22;;;22.10;47.00;;;;;;5057969;28;20036;-63
2021/06/04 10:18:39;;;;;;;5.28;1.73;;;22.10;47.20;;;;;;5053078;28;20337;-63
2021/06/04 10:21:27;;;;;;;4.25;2.05;;;22.10;46.70;;;;;;5060546;28;20029;-62
2021/06/04 10:23:55;;;;;;;4.50;2.00;;;22.10;46.40;;;;;;5059288;28;20036;-63
2021/06/04 10:26:20;;;;;;;4.00;2.05;;;22.10;46.50;;;;;;5060219;28;20649;-62
2021/06/04 10:28:51;;;;;;;2.13;1.85;;;22.20;46.50;;;;;;5053518;28;20040;-62
2021/06/04 10:31:17;;;;;;;3.80;1.88;;;22.20;46.90;;;;;;5058829;28;20093;-62
2021/06/04 10:33:42;;;;;;;2.53;2.00;;;22.20;46.50;;;;;;5057474;28;20037;-62
2021/06/04 10:36:14;;;;;;;2.17;1.90;;;22.20;46.90;;;;;;5057846;28;20029;-62
2021/06/04 10:38:44;;;;;;;2.58;2.00;;;22.10;46.70;;;;;;5056653;28;20029;-63
2021/06/04 10:41:18;;;;;;;2.67;1.98;;;22.00;46.30;;;;;;5059064;28;20056;-62
2021/06/04 10:44:15;;;;;;;2.05;1.60;;;22.00;46.50;;;;;;5056964;28;20029;-62
2021/06/04 10:46:43;;;;;;;3.58;1.92;;;22.00;46.50;;;;;;5056292;28;20098;-62
2021/06/04 10:49:26;;;;;;;3.65;2.08;;;22.00;46.30;;;;;;5058411;28;20031;-63
2021/06/04 10:51:57;;;;;;;3.55;1.90;;;22.10;46.90;;;;;;5059214;28;20047;-62
2021/06/04 10:54:33;;;;;;;7.10;2.25;;;22.10;46.90;;;;;;5057893;28;20039;-63
2021/06/04 10:57:09;;;;;;;3.47;1.73;;;22.10;47.30;;;;;;5051471;28;20056;-63
2021/06/04 10:59:52;;;;;;;2.92;2.10;;;22.10;47.70;;;;;;5055880;28;20048;-65
2021/06/04 11:02:46;;;;;;;4.70;1.98;;;22.00;47.60;;;;;;5055612;28;20024;-65
2021/06/04 11:05:37;;;;;;;3.40;2.13;;;22.00;47.20;;;;;;5051021;28;20664;-66
2021/06/04 11:08:27;;;;;;;5.83;1.97;;;22.00;47.40;;;;;;5050957;28;20036;-65
2021/06/04 11:11:18;;;;;;;4.63;2.10;;;21.90;48.10;;;;;;5054387;28;21578;-65
2021/06/04 11:13:55;;;;;;;2.43;1.83;;;21.90;48.30;;;;;;5055039;28;20037;-68
2021/06/04 11:16:31;;;;;;;4.43;1.88;;;21.90;48.50;;;;;;5059575;28;20939;-56
2021/06/04 11:19:23;;;;;;;3.30;2.13;;;21.90;49.00;;;;;;5056777;28;20060;-62
2021/06/04 11:21:55;;;;;;;3.28;2.10;;;21.90;47.80;;;;;;5049784;28;20115;-63
2021/06/04 11:24:50;;;;;;;3.85;1.73;;;22.00;47.60;;;;;;5051767;28;20012;-66
2021/06/04 11:27:34;;;;;;;3.42;1.90;;;22.00;47.40;;;;;;5031423;28;20492;-68
2021/06/04 11:30:01;;;;;;;4.63;2.30;;;22.00;47.70;;;;;;5053766;28;20032;-68
2021/06/04 11:32:49;;;;;;;2.95;2.05;;;22.00;48.00;;;;;;5051164;28;20016;-66
2021/06/04 11:35:19;;;;;;;4.07;2.20;;;22.00;48.00;;;;;;5047231;28;20075;-65
2021/06/04 11:38:06;;;;;;;6.90;2.20;;;22.00;47.50;;;;;;5055256;28;20040;-66
2021/06/04 11:40:38;;;;;;;3.85;2.17;;;21.90;47.50;;;;;;5055878;28;20049;-65
2021/06/04 11:43:12;;;;;;;6.25;2.28;;;22.00;48.00;;;;;;5051564;28;20028;-65
2021/06/04 11:45:39;;;;;;;2.92;1.98;;;22.00;48.20;;;;;;5054824;28;20090;-65
2021/06/04 11:48:20;;;;;;;2.60;1.85;;;22.00;48.50;;;;;;5045812;28;20542;-65
2021/06/04 11:50:46;;;;;;;2.63;2.10;;;22.00;48.70;;;;;;5052733;28;20028;-65
2021/06/04 11:53:37;;;;;;;4.30;2.03;;;22.00;48.90;;;;;;5055073;28;20048;-64
2021/06/04 11:56:03;;;;;;;;;;;22.10;47.90;;;;;;5052382;28;20036;-64
2021/06/04 11:58:29;;;;;;;3.33;1.95;;;22.00;47.20;;;;;;5045161;28;19927;-55
2021/06/04 12:01:19;;;;;;;2.85;1.88;;;22.00;47.70;;;;;;5043448;28;21051;-55
2021/06/04 12:03:59;;;;;;;4.93;2.00;;;22.00;47.20;;;;;;5053028;28;20060;-52
2021/06/04 12:06:26;;;;;;;5.55;2.17;;;22.00;46.30;;;;;;5056576;28;20051;-56
2021/06/04 12:08:57;;;;;;;3.40;1.95;;;22.00;47.10;;;;;;5057009;28;20124;-54
2021/06/04 12:11:22;;;;;;;3.33;2.00;;;22.00;47.90;;;;;;5054902;28;20051;-53
2021/06/04 12:13:49;;;;;;;4.05;2.17;;;22.00;48.60;;;;;;5057779;28;20032;-51
2021/06/04 12:16:26;;;;;;;3.47;1.80;;;22.00;48.40;;;;;;5054701;28;20497;-56
2021/06/04 12:19:22;;;;;;;7.43;2.10;;;22.00;48.20;;;;;;5058128;28;20040;-55
2021/06/04 12:21:48;;;;;;;3.10;1.70;;;22.00;48.40;;;;;;5054546;28;20028;-54
2021/06/04 12:24:16;;;;;;;4.25;1.95;;;22.00;47.90;;;;;;5056011;28;20504;-56
2021/06/04 12:26:49;;;;;;;3.15;1.80;;;22.00;48.20;;;;;;5055676;28;20056;-56
2021/06/04 12:29:21;;;;;;;3.83;1.90;;;22.00;48.40;;;;;;5048312;28;20052;-55
2021/06/04 12:31:57;;;;;;;3.60;1.85;;;22.00;48.50;;;;;;5054687;28;20481;-57
2021/06/04 12:34:32;;;;;;;2.28;1.52;;;22.00;48.80;;;;;;5055381;28;20047;-53
2021/06/04 12:37:30;;;;;;;2.60;2.13;;;22.10;49.10;;;;;;5055914;28;20029;-54
2021/06/04 12:40:07;;;;;;;2.58;1.73;;;22.10;49.10;;;;;;5054740;28;20587;-56
2021/06/04 12:42:44;;;;;;;3.08;1.80;;;22.00;49.20;;;;;;5048054;28;20070;-55
2021/06/04 12:45:15;;;;;;;2.60;1.92;;;22.00;49.40;;;;;;5053331;28;20082;-51
2021/06/04 12:47:56;;;;;;;2.22;2.00;;;22.00;49.20;;;;;;5052667;28;20076;-57
2021/06/04 12:50:35;;;;;;;2.40;2.00;;;22.10;48.50;;;;;;5051964;28;20400;-59
2021/06/04 12:53:32;;;;;;;2.60;1.48;;;22.10;48.20;;;;;;5053595;28;20032;-56
2021/06/04 12:56:01;;;;;;;1.98;1.80;;;22.00;48.90;;;;;;5047755;28;20090;-56
2021/06/04 12:58:50;;;;;;;4.25;1.90;;;22.00;48.70;;;;;;5048254;28;20036;-55
2021/06/04 13:01:24;;;;;;;2.95;1.55;;;21.90;48.80;;;;;;5048199;28;20779;-57
2021/06/04 13:03:53;;;;;;;3.22;1.67;;;21.90;48.90;;;;;;5050233;28;20437;-56
2021/06/04 13:06:37;;;;;;;2.65;2.13;;;21.80;49.00;;;;;;5051993;28;20063;-56
2021/06/04 13:09:05;;;;;;;3.38;2.28;;;21.70;48.80;;;;;;5052190;28;20090;-57
2021/06/04 13:11:39;;;;;;;3.17;1.95;;;21.70;48.30;;;;;;5056760;28;20178;-57
2021/06/04 13:14:25;;;;;;;3.35;1.90;;;21.70;48.50;;;;;;5054848;28;20570;-52